Погода Стрелицана 2 недели

Витебская область, Белоруссия

22 июля-04 августа
  • 22июля
    Сегодня
    +14°
    +26°
    Практически безоблачно
    ВремяПогодаТемператураВлажностьДавлениеВетер, м/сВероятность осадков
    00:00Ясно и безоблачно+17°C88 %749 мм0.9 м/с2 %
    03:00Ясно и безоблачно+13°C98 %749 мм1.9 м/с2 %
    06:00Ясно и безоблачно+14°C99 %749 мм1.0 м/с2 %
    09:00Ясно и безоблачно+20°C82 %750 мм0.4 м/с2 %
    12:00Облачно с прояснениями+23°C64 %750 мм1.8 м/с16 %
    15:00Практически безоблачно+25°C61 %750 мм1.8 м/с28 %
    18:00Практически безоблачно+25°C58 %750 мм2.1 м/с19 %
    21:00Ясно и безоблачно+22°C79 %750 мм1.6 м/с8 %
  • 23июля
    Вторник
    +15°
    +26°
    Ясно и безоблачно
    ВремяПогодаТемператураВлажностьДавлениеВетер, м/сВероятность осадков
    00:00Ясно и безоблачно+18°C95 %751 мм1.8 м/с2 %
    03:00Ясно и безоблачно+16°C97 %751 мм2.2 м/с2 %
    06:00Ясно и безоблачно+16°C96 %751 мм2.2 м/с2 %
    09:00Ясно и безоблачно+21°C80 %751 мм2.2 м/с2 %
    12:00Ясно и безоблачно+24°C58 %751 мм3.1 м/с8 %
    15:00Ясно и безоблачно+25°C51 %751 мм3.0 м/с22 %
    18:00Практически безоблачно+25°C51 %751 мм2.4 м/с18 %
    21:00Ясно и безоблачно+22°C66 %751 мм2.0 м/с7 %
  • 24июля
    Среда
    +15°
    +27°
    Небольшая облачность
    ВремяПогодаТемператураВлажностьДавлениеВетер, м/сВероятность осадков
    00:00Ясно и безоблачно+19°C66 %751 мм2.7 м/с2 %
    03:00Ясно и безоблачно+17°C81 %751 мм1.7 м/с2 %
    06:00Ясно и безоблачно+16°C86 %750 мм1.8 м/с2 %
    09:00Ясно и безоблачно+21°C70 %750 мм1.1 м/с2 %
    12:00Ясно и безоблачно+25°C47 %750 мм1.0 м/с11 %
    15:00Небольшая облачность+26°C44 %749 мм1.8 м/с24 %
    18:00Небольшая облачность+26°C45 %749 мм3.3 м/с34 %
    21:00Ясно и безоблачно+22°C72 %749 мм3.0 м/с16 %
  • 25июля
    Четверг
    +14°
    +26°
    Облачно с прояснениями
    ВремяПогодаТемператураВлажностьДавлениеВетер, м/сВероятность осадков
    00:00Ясно и безоблачно+19°C81 %749 мм2.2 м/с3 %
    03:00Практически безоблачно+17°C84 %749 мм2.1 м/с5 %
    06:00Практически безоблачно+16°C85 %748 мм2.4 м/с9 %
    09:00Практически безоблачно+21°C65 %749 мм2.3 м/с9 %
    12:00Практически безоблачно+25°C39 %749 мм3.4 м/с9 %
    15:00Облачно с прояснениями+26°C36 %748 мм2.7 м/с10 %
    18:00Практически безоблачно+25°C40 %748 мм3.1 м/с12 %
    21:00Ясно и безоблачно+21°C65 %748 мм1.9 м/с7 %
  • 26июля
    Пятница
    +14°
    +27°
    Практически безоблачно
    ВремяПогодаТемператураВлажностьДавлениеВетер, м/сВероятность осадков
    00:00Ясно и безоблачно+17°C80 %749 мм2.0 м/с6 %
    03:00Ясно и безоблачно+15°C83 %749 мм1.7 м/с2 %
    06:00Небольшая облачность+15°C82 %749 мм1.3 м/с4 %
    09:00Практически безоблачно+21°C64 %750 мм1.0 м/с9 %
    12:00Небольшая облачность+25°C44 %750 мм2.0 м/с22 %
    15:00Практически безоблачно+26°C42 %750 мм1.8 м/с38 %
    18:00Небольшая облачность+26°C49 %750 мм1.8 м/с43 %
    21:00Небольшая облачность+22°C71 %751 мм1.8 м/с30 %
Мы используем cookies
Соглашаюсь